Time;durP1;ratioP1;P1;durP2;ratioP2;P2;SDS_P1;SDS_P2;PMS_P1;PMS_P2;Temp;Humidity;BMP_temperature;BMP_pressure;BME280_temperature;BME280_humidity;BME280_pressure;Samples;Min_cycle;Max_cycle;Signal;HPM_P1;HPM_P2
2022/10/24 00:02:04;;;;;;;7.40;2.25;;;16.30;99.90;;;;;;5118425;28;20421;-73
2022/10/24 00:04:33;;;;;;;6.10;2.15;;;16.30;99.90;;;;;;5100646;28;20470;-72
2022/10/24 00:06:59;;;;;;;9.43;1.85;;;16.20;99.90;;;;;;5118622;28;20036;-72
2022/10/24 00:09:25;;;;;;;7.80;1.73;;;16.20;99.90;;;;;;5118553;28;20039;-72
2022/10/24 00:11:50;;;;;;;5.50;1.92;;;16.20;99.90;;;;;;5118181;28;20058;-72
2022/10/24 00:14:16;;;;;;;5.85;1.80;;;16.20;99.90;;;;;;5116911;28;20048;-72
2022/10/24 00:16:41;;;;;;;5.38;1.83;;;16.10;99.90;;;;;;5118444;28;20115;-72
2022/10/24 00:19:07;;;;;;;10.60;2.33;;;16.20;99.90;;;;;;5100343;28;20036;-73
2022/10/24 00:21:33;;;;;;;9.30;1.58;;;16.20;99.90;;;;;;5118429;28;20028;-72
2022/10/24 00:23:59;;;;;;;8.82;1.80;;;16.30;99.90;;;;;;5118044;28;20325;-72
2022/10/24 00:26:24;;;;;;;5.25;1.73;;;16.30;99.90;;;;;;5117995;28;20087;-72
2022/10/24 00:28:50;;;;;;;7.60;1.60;;;16.20;99.90;;;;;;5118189;28;20040;-72
2022/10/24 00:31:18;;;;;;;4.43;1.75;;;16.10;99.90;;;;;;5118115;28;20062;-72
2022/10/24 00:33:44;;;;;;;6.32;1.70;;;16.10;99.90;;;;;;5118172;28;20333;-72
2022/10/24 00:36:16;;;;;;;3.42;1.38;;;16.10;99.90;;;;;;5118089;28;20118;-72
2022/10/24 00:38:42;;;;;;;6.65;1.20;;;16.10;99.90;;;;;;5099752;28;20079;-72
2022/10/24 00:41:14;;;;;;;3.13;1.33;;;16.10;99.90;;;;;;5117648;28;20128;-72
2022/10/24 00:43:39;;;;;;;9.38;1.48;;;16.20;99.90;;;;;;5117308;28;20039;-72
2022/10/24 00:46:05;;;;;;;5.95;1.35;;;16.20;99.90;;;;;;5118146;28;20045;-72
2022/10/24 00:48:34;;;;;;;5.53;1.65;;;16.20;99.90;;;;;;5117833;28;20039;-72
2022/10/24 00:51:06;;;;;;;6.35;1.50;;;16.10;99.90;;;;;;5117541;28;20436;-72
2022/10/24 00:53:36;;;;;;;7.05;1.45;;;16.20;99.90;;;;;;5099591;28;20036;-72
2022/10/24 00:56:05;;;;;;;8.32;1.52;;;16.20;99.90;;;;;;5117805;28;20040;-72
2022/10/24 00:58:34;;;;;;;4.78;1.27;;;16.30;99.90;;;;;;5117393;28;20404;-72
2022/10/24 01:01:00;;;;;;;5.18;1.20;;;16.30;99.90;;;;;;5117589;28;20046;-72
2022/10/24 01:03:27;;;;;;;7.15;1.42;;;16.40;99.90;;;;;;5117622;28;20035;-72
2022/10/24 01:06:15;;;;;;;8.65;1.25;;;16.40;99.90;;;;;;5117569;28;20103;-72
2022/10/24 01:09:11;;;;;;;7.25;1.63;;;16.40;99.90;;;;;;5117597;28;20035;-72
2022/10/24 01:11:51;;;;;;;8.40;1.30;;;16.30;99.90;;;;;;5117520;28;20054;-72
2022/10/24 01:14:34;;;;;;;3.95;1.10;;;16.30;99.90;;;;;;5116754;28;20908;-72
2022/10/24 01:17:16;;;;;;;6.80;1.38;;;16.20;99.90;;;;;;5117181;28;20035;-72
2022/10/24 01:20:06;;;;;;;3.38;1.17;;;16.20;99.90;;;;;;5117360;28;20089;-72
2022/10/24 01:22:46;;;;;;;6.30;1.88;;;16.20;99.90;;;;;;5099328;28;20416;-73
2022/10/24 01:25:57;;;;;;;5.97;1.70;;;16.30;99.90;;;;;;5117184;28;20114;-72
2022/10/24 01:28:38;;;;;;;7.68;1.55;;;16.20;99.90;;;;;;5091666;28;20048;-72
2022/10/24 01:31:12;;;;;;;6.55;1.45;;;16.20;99.90;;;;;;5116969;28;20043;-72
2022/10/24 01:33:49;;;;;;;7.80;1.95;;;16.20;99.90;;;;;;5117304;28;20085;-72
2022/10/24 01:36:28;;;;;;;9.05;1.70;;;16.20;99.90;;;;;;5117251;28;20039;-73
2022/10/24 01:38:57;;;;;;;5.65;1.70;;;16.30;99.90;;;;;;5117231;28;20043;-72
2022/10/24 01:41:27;;;;;;;5.78;1.70;;;16.30;99.90;;;;;;5117022;28;20075;-72
2022/10/24 01:44:05;;;;;;;8.98;1.85;;;16.30;99.90;;;;;;5116275;28;20035;-72
2022/10/24 01:46:36;;;;;;;6.88;1.75;;;16.30;99.90;;;;;;5098834;28;20410;-72
2022/10/24 01:49:07;;;;;;;9.52;1.83;;;16.30;99.90;;;;;;5117138;28;20389;-72
2022/10/24 01:51:35;;;;;;;5.22;1.98;;;16.20;99.90;;;;;;5117390;28;20321;-73
2022/10/24 01:54:03;;;;;;;9.82;1.90;;;16.30;99.90;;;;;;5116716;28;20498;-72
2022/10/24 01:56:28;;;;;;;6.75;1.60;;;16.40;99.90;;;;;;5116654;28;20050;-72
2022/10/24 01:59:21;;;;;;;11.10;1.88;;;16.40;99.90;;;;;;5116965;28;20032;-72
2022/10/24 02:01:47;;;;;;;6.47;1.98;;;16.60;99.90;;;;;;5116983;28;20097;-72
2022/10/24 02:04:13;;;;;;;6.93;2.20;;;16.50;99.90;;;;;;5116894;28;20036;-72
2022/10/24 02:06:41;;;;;;;14.95;2.33;;;16.60;99.90;;;;;;5116654;28;20417;-73
2022/10/24 02:09:13;;;;;;;8.38;2.03;;;16.60;99.90;;;;;;5098585;28;20332;-73
2022/10/24 02:11:39;;;;;;;5.03;1.80;;;16.60;99.90;;;;;;5116921;28;20031;-72
2022/10/24 02:14:22;;;;;;;10.27;2.30;;;16.60;99.90;;;;;;5098157;28;20039;-73
2022/10/24 02:16:49;;;;;;;10.32;2.70;;;16.70;99.90;;;;;;5116563;28;20047;-72
2022/10/24 02:19:15;;;;;;;6.65;2.00;;;16.70;99.90;;;;;;5116710;28;20036;-72
2022/10/24 02:22:02;;;;;;;7.63;2.00;;;16.70;99.90;;;;;;5116729;28;20092;-72
2022/10/24 02:24:31;;;;;;;7.50;2.03;;;16.70;99.90;;;;;;5116773;28;20065;-72
2022/10/24 02:27:05;;;;;;;9.35;2.25;;;16.70;99.90;;;;;;5116368;28;20047;-72
2022/10/24 02:30:02;;;;;;;8.55;1.90;;;16.70;99.90;;;;;;5116712;28;20039;-72
2022/10/24 02:32:34;;;;;;;11.32;2.05;;;16.70;99.90;;;;;;5098359;28;20071;-72
2022/10/24 02:35:02;;;;;;;6.65;1.80;;;16.70;99.90;;;;;;5116337;28;20443;-72
2022/10/24 02:37:30;;;;;;;12.98;2.20;;;16.70;99.90;;;;;;5119192;28;20031;-72
2022/10/24 02:39:58;;;;;;;6.43;1.77;;;16.70;99.90;;;;;;5102114;28;20374;-72
2022/10/24 02:42:27;;;;;;;8.52;1.90;;;16.80;99.90;;;;;;5120272;28;20043;-72
2022/10/24 02:44:53;;;;;;;9.40;2.08;;;16.80;99.90;;;;;;5101579;28;20107;-72
2022/10/24 02:47:21;;;;;;;9.93;2.10;;;16.70;99.90;;;;;;5120269;28;20040;-72
2022/10/24 02:49:47;;;;;;;9.38;2.38;;;16.70;99.90;;;;;;5120162;28;20047;-73
2022/10/24 02:52:13;;;;;;;7.43;1.92;;;16.80;99.90;;;;;;5119845;28;20488;-72
2022/10/24 02:54:39;;;;;;;11.00;2.28;;;16.80;99.90;;;;;;5120080;28;20031;-72
2022/10/24 02:57:05;;;;;;;10.93;2.15;;;17.00;99.90;;;;;;5119735;28;20451;-72
2022/10/24 02:59:30;;;;;;;10.60;2.00;;;17.00;99.90;;;;;;5101660;28;20055;-72
2022/10/24 03:01:56;;;;;;;9.18;2.20;;;16.90;99.90;;;;;;5119959;28;20035;-72
2022/10/24 03:04:22;;;;;;;7.95;1.90;;;16.90;99.90;;;;;;5119872;28;20031;-72
2022/10/24 03:06:48;;;;;;;8.27;1.90;;;16.90;99.90;;;;;;5119841;28;20027;-72
2022/10/24 03:09:14;;;;;;;8.45;1.80;;;16.90;99.90;;;;;;5119546;28;20035;-73
2022/10/24 03:11:40;;;;;;;10.43;2.03;;;16.80;99.90;;;;;;5119787;28;20066;-72
2022/10/24 03:14:06;;;;;;;5.15;1.85;;;16.70;99.90;;;;;;5100927;28;20321;-73
2022/10/24 03:16:32;;;;;;;15.68;2.13;;;16.60;99.90;;;;;;5119673;28;20058;-72
2022/10/24 03:18:57;;;;;;;7.95;1.95;;;16.60;99.90;;;;;;5119636;28;20483;-72
2022/10/24 03:21:23;;;;;;;9.65;2.25;;;16.60;99.90;;;;;;5119253;28;20421;-72
2022/10/24 03:23:49;;;;;;;8.20;1.90;;;16.70;99.90;;;;;;5119233;28;20333;-72
2022/10/24 03:26:15;;;;;;;11.30;2.15;;;16.60;99.90;;;;;;5116410;28;20059;-72
2022/10/24 03:28:40;;;;;;;7.25;1.73;;;16.60;99.90;;;;;;5117204;28;20051;-72
2022/10/24 03:31:06;;;;;;;6.50;1.65;;;16.60;99.90;;;;;;5119339;28;20128;-72
2022/10/24 03:33:32;;;;;;;9.55;1.67;;;16.60;99.90;;;;;;5101025;28;20039;-72
2022/10/24 03:35:58;;;;;;;9.02;2.13;;;16.60;99.90;;;;;;5119295;28;20051;-72
2022/10/24 03:38:24;;;;;;;5.82;2.40;;;16.70;99.90;;;;;;5119258;28;20066;-72
2022/10/24 03:40:50;;;;;;;9.55;1.92;;;16.70;99.90;;;;;;5100800;28;20118;-72
2022/10/24 03:43:17;;;;;;;9.52;2.20;;;16.80;99.90;;;;;;5118727;28;20123;-72
2022/10/24 03:45:43;;;;;;;12.02;2.75;;;16.80;99.90;;;;;;5119090;28;20046;-72
2022/10/24 03:48:08;;;;;;;7.80;1.85;;;16.80;99.90;;;;;;5117757;28;20040;-72
2022/10/24 03:50:34;;;;;;;8.68;2.03;;;16.90;99.90;;;;;;5119021;28;20118;-72
2022/10/24 03:53:00;;;;;;;7.95;1.92;;;16.80;99.90;;;;;;5083809;28;20050;-72
2022/10/24 03:55:26;;;;;;;5.30;1.77;;;16.70;99.90;;;;;;5118957;28;20067;-72
2022/10/24 03:57:52;;;;;;;7.30;1.98;;;16.60;99.90;;;;;;5118863;28;20062;-72
2022/10/24 04:00:18;;;;;;;11.57;2.00;;;16.60;99.90;;;;;;5118680;28;20039;-72
2022/10/24 04:02:45;;;;;;;9.70;2.00;;;16.60;99.90;;;;;;5100774;28;20035;-72
2022/10/24 04:05:11;;;;;;;7.57;2.20;;;16.80;99.90;;;;;;5118734;28;20416;-72
2022/10/24 04:07:37;;;;;;;5.35;1.90;;;16.70;99.90;;;;;;5118704;28;20108;-72
2022/10/24 04:10:04;;;;;;;8.18;1.80;;;16.70;99.90;;;;;;5100320;28;20039;-72
2022/10/24 04:12:29;;;;;;;6.90;2.25;;;16.70;99.90;;;;;;5118566;28;20044;-72
2022/10/24 04:14:55;;;;;;;9.45;2.20;;;16.60;99.90;;;;;;5117874;28;20428;-72
2022/10/24 04:17:21;;;;;;;6.80;1.73;;;16.60;99.90;;;;;;5117877;28;20039;-72
2022/10/24 04:19:46;;;;;;;6.35;1.75;;;16.70;99.90;;;;;;5099917;28;20040;-72
2022/10/24 04:22:12;;;;;;;7.43;1.85;;;16.60;99.90;;;;;;5118161;28;20423;-72
2022/10/24 04:24:38;;;;;;;10.23;2.00;;;16.50;99.90;;;;;;5118853;28;20320;-72
2022/10/24 04:27:05;;;;;;;9.38;2.00;;;16.40;99.90;;;;;;5117601;28;20368;-73
2022/10/24 04:29:31;;;;;;;10.45;2.33;;;16.40;99.90;;;;;;5099897;28;20049;-72
2022/10/24 04:31:56;;;;;;;8.18;2.05;;;16.40;99.90;;;;;;5118154;28;20122;-72
2022/10/24 04:34:22;;;;;;;7.70;1.90;;;16.40;99.90;;;;;;5117830;28;20040;-72
2022/10/24 04:36:48;;;;;;;6.75;2.25;;;16.40;99.90;;;;;;5118157;28;20042;-72
2022/10/24 04:39:13;;;;;;;12.20;2.00;;;16.30;99.90;;;;;;5118092;28;20028;-72
2022/10/24 04:41:39;;;;;;;9.63;1.83;;;16.20;99.90;;;;;;5117958;28;20127;-72
2022/10/24 04:44:05;;;;;;;11.07;1.90;;;16.10;99.90;;;;;;5099671;28;20035;-72
2022/10/24 04:46:30;;;;;;;10.02;2.10;;;16.10;99.90;;;;;;5117875;28;20078;-72
2022/10/24 04:48:56;;;;;;;8.88;1.85;;;16.10;99.90;;;;;;5099845;28;20044;-72
2022/10/24 04:51:22;;;;;;;8.25;2.13;;;16.00;99.90;;;;;;5117693;28;20439;-72
2022/10/24 04:53:47;;;;;;;12.70;2.67;;;16.10;99.90;;;;;;5117471;28;20040;-72
2022/10/24 04:56:13;;;;;;;12.20;1.92;;;16.10;99.90;;;;;;5117420;28;20047;-72
2022/10/24 04:58:39;;;;;;;8.18;1.70;;;16.00;99.90;;;;;;5117331;28;20035;-72
2022/10/24 05:01:04;;;;;;;7.35;1.75;;;16.00;99.90;;;;;;5117587;28;20050;-72
2022/10/24 05:03:30;;;;;;;10.05;1.85;;;16.10;99.90;;;;;;5117512;28;20039;-72
2022/10/24 05:05:56;;;;;;;5.53;1.50;;;16.20;99.90;;;;;;5117601;28;20036;-72
2022/10/24 05:08:21;;;;;;;8.77;1.38;;;16.20;99.90;;;;;;5117568;28;20325;-72
2022/10/24 05:10:47;;;;;;;11.68;1.63;;;16.30;99.90;;;;;;5117516;28;20336;-73
2022/10/24 05:13:13;;;;;;;10.85;2.08;;;16.20;99.90;;;;;;5117536;28;20040;-81
2022/10/24 05:15:39;;;;;;;6.72;1.67;;;16.00;99.90;;;;;;5117450;28;20089;-73
2022/10/24 05:18:04;;;;;;;6.15;1.52;;;16.10;99.90;;;;;;5117128;28;20043;-73
2022/10/24 05:20:30;;;;;;;10.05;2.00;;;16.10;99.90;;;;;;5116979;28;20044;-72
2022/10/24 05:22:56;;;;;;;7.47;1.67;;;16.10;99.90;;;;;;5099428;28;20126;-72
2022/10/24 05:25:21;;;;;;;10.73;1.95;;;16.10;99.90;;;;;;5117331;28;20046;-72
2022/10/24 05:27:47;;;;;;;7.32;1.60;;;16.00;99.90;;;;;;5116844;28;20051;-72
2022/10/24 05:30:13;;;;;;;10.98;1.65;;;16.10;99.90;;;;;;5099280;28;20043;-72
2022/10/24 05:32:39;;;;;;;8.32;1.40;;;16.10;99.90;;;;;;5117227;28;20083;-72
2022/10/24 05:35:05;;;;;;;8.27;2.03;;;16.00;99.90;;;;;;5098934;28;20079;-72
2022/10/24 05:37:31;;;;;;;8.77;1.85;;;16.00;99.90;;;;;;5099194;28;20078;-72
2022/10/24 05:39:56;;;;;;;5.43;1.63;;;15.90;99.90;;;;;;5099158;28;20076;-72
2022/10/24 05:42:22;;;;;;;6.10;1.60;;;15.80;99.90;;;;;;5099081;28;20043;-72
2022/10/24 05:44:48;;;;;;;8.25;1.65;;;15.80;99.90;;;;;;5116473;28;20421;-72
2022/10/24 05:47:13;;;;;;;9.00;1.40;;;15.80;99.90;;;;;;5117074;28;20425;-72
2022/10/24 05:49:39;;;;;;;8.48;1.70;;;15.80;99.90;;;;;;5117042;28;20054;-72
2022/10/24 05:52:05;;;;;;;6.50;1.55;;;15.80;99.90;;;;;;5117029;28;20036;-72
2022/10/24 05:54:30;;;;;;;5.88;1.33;;;15.80;99.90;;;;;;5117093;28;20039;-72
2022/10/24 05:56:56;;;;;;;7.13;1.40;;;15.90;99.90;;;;;;5116703;28;20345;-72
2022/10/24 05:59:22;;;;;;;12.27;1.67;;;15.90;99.90;;;;;;5116910;28;20040;-72
2022/10/24 06:01:47;;;;;;;11.13;1.77;;;16.00;99.90;;;;;;5116940;28;20088;-72
2022/10/24 06:04:13;;;;;;;5.88;1.45;;;16.10;99.90;;;;;;5116658;28;20039;-72
2022/10/24 06:06:41;;;;;;;6.40;1.67;;;16.10;99.90;;;;;;5098662;28;20046;-72
2022/10/24 06:09:07;;;;;;;8.43;1.75;;;16.10;99.90;;;;;;5098956;28;20067;-72
2022/10/24 06:11:33;;;;;;;6.30;1.63;;;16.00;99.90;;;;;;5117965;28;20337;-72
2022/10/24 06:13:59;;;;;;;6.95;1.55;;;16.10;99.90;;;;;;5120478;28;20031;-72
2022/10/24 06:16:26;;;;;;;7.88;1.73;;;16.20;99.90;;;;;;5102808;28;20048;-72
2022/10/24 06:18:52;;;;;;;9.35;1.33;;;16.10;99.90;;;;;;5120821;28;20102;-72
2022/10/24 06:21:18;;;;;;;4.40;1.10;;;16.20;99.90;;;;;;5120689;28;20071;-72
2022/10/24 06:23:44;;;;;;;6.03;1.23;;;16.20;99.90;;;;;;5120605;28;20039;-72
2022/10/24 06:26:11;;;;;;;9.98;1.55;;;16.10;99.90;;;;;;5120183;28;20031;-72
2022/10/24 06:28:37;;;;;;;9.93;1.70;;;16.20;99.90;;;;;;5120604;28;20046;-72
2022/10/24 06:31:03;;;;;;;6.70;1.45;;;16.10;99.90;;;;;;5120581;28;20036;-72
2022/10/24 06:33:30;;;;;;;12.68;1.40;;;16.20;99.90;;;;;;5120546;28;20036;-72
2022/10/24 06:35:59;;;;;;;13.73;1.63;;;16.30;99.90;;;;;;5120488;28;20042;-73
2022/10/24 06:38:24;;;;;;;8.75;1.50;;;16.30;99.90;;;;;;5120143;28;20047;-72
2022/10/24 06:40:50;;;;;;;6.38;1.13;;;16.30;99.90;;;;;;5120092;28;20048;-72
2022/10/24 06:43:18;;;;;;;7.15;1.05;;;16.20;99.90;;;;;;5120332;28;20040;-72
2022/10/24 06:45:44;;;;;;;8.15;1.30;;;16.10;99.90;;;;;;5119774;28;20071;-72
2022/10/24 06:48:10;;;;;;;7.47;1.20;;;16.10;99.90;;;;;;5120214;28;20082;-72
2022/10/24 06:50:39;;;;;;;7.60;0.90;;;16.10;99.90;;;;;;5101852;28;20043;-72
2022/10/24 06:53:06;;;;;;;8.27;1.10;;;16.10;99.90;;;;;;5119852;28;20122;-72
2022/10/24 06:55:32;;;;;;;11.98;1.25;;;16.00;99.90;;;;;;5119754;28;20420;-72
2022/10/24 06:57:57;;;;;;;5.43;1.27;;;16.20;99.90;;;;;;5101978;28;20324;-72
2022/10/24 07:00:23;;;;;;;4.97;1.08;;;16.20;99.90;;;;;;5119873;28;20047;-72
2022/10/24 07:02:49;;;;;;;11.00;0.98;;;16.20;99.90;;;;;;5101688;28;20040;-72
2022/10/24 07:05:15;;;;;;;6.22;1.30;;;16.20;99.90;;;;;;5119610;28;20080;-72
2022/10/24 07:07:42;;;;;;;4.68;1.10;;;16.10;99.90;;;;;;5119815;28;20035;-71
2022/10/24 07:10:11;;;;;;;6.95;1.17;;;16.20;99.90;;;;;;5119759;28;20042;-72
2022/10/24 07:12:36;;;;;;;8.07;1.30;;;16.30;99.90;;;;;;5119795;28;20052;-72
2022/10/24 07:15:03;;;;;;;4.80;1.23;;;16.30;99.90;;;;;;5119322;28;20042;-72
2022/10/24 07:17:28;;;;;;;5.25;1.20;;;16.30;99.90;;;;;;5119916;28;20039;-70
2022/10/24 07:19:55;;;;;;;7.35;1.10;;;16.30;99.90;;;;;;5119549;28;20093;-70
2022/10/24 07:22:21;;;;;;;4.47;1.00;;;16.30;99.90;;;;;;5119289;28;20075;-70
2022/10/24 07:24:54;;;;;;;7.93;1.85;;;16.30;99.90;;;;;;5119246;28;20424;-69
2022/10/24 07:27:20;;;;;;;6.28;1.23;;;16.30;99.90;;;;;;5119155;28;20054;-70
2022/10/24 07:29:46;;;;;;;7.63;1.25;;;16.40;99.90;;;;;;5101128;28;20039;-70
2022/10/24 07:32:11;;;;;;;10.73;1.52;;;16.50;99.90;;;;;;5119421;28;20035;-70
2022/10/24 07:34:39;;;;;;;6.35;1.27;;;16.50;99.90;;;;;;5119388;28;20039;-70
2022/10/24 07:37:04;;;;;;;8.00;1.52;;;16.50;99.90;;;;;;5118991;28;20439;-70
2022/10/24 07:39:30;;;;;;;5.80;1.20;;;16.50;99.90;;;;;;5119151;28;20119;-70
2022/10/24 07:41:56;;;;;;;5.47;1.10;;;16.40;99.90;;;;;;5119218;28;20050;-70
2022/10/24 07:44:21;;;;;;;8.02;1.63;;;16.40;99.90;;;;;;5118432;28;20341;-72
2022/10/24 07:46:47;;;;;;;9.02;1.60;;;16.50;99.90;;;;;;5118160;28;20046;-69
2022/10/24 07:49:13;;;;;;;13.40;2.55;;;16.50;99.90;;;;;;5118779;28;20165;-70
2022/10/24 07:51:40;;;;;;;10.10;1.73;;;16.40;99.90;;;;;;5083938;28;20172;-70
2022/10/24 07:54:06;;;;;;;6.47;0.85;;;16.40;99.90;;;;;;5118980;28;20052;-70
2022/10/24 07:56:31;;;;;;;8.15;0.90;;;16.60;99.90;;;;;;5118730;28;20043;-72
2022/10/24 07:58:59;;;;;;;7.10;1.25;;;16.50;99.90;;;;;;5118823;28;20118;-70
2022/10/24 08:01:27;;;;;;;9.18;1.30;;;16.70;99.90;;;;;;5122903;28;20047;-73
2022/10/24 08:03:53;;;;;;;6.35;1.08;;;16.70;99.90;;;;;;5118987;28;20097;-73
2022/10/24 08:06:27;;;;;;;20.98;1.73;;;16.80;99.90;;;;;;5118916;28;20039;-72
2022/10/24 08:08:53;;;;;;;9.00;1.63;;;16.80;99.90;;;;;;5100813;28;20119;-72
2022/10/24 08:11:21;;;;;;;4.80;0.98;;;16.90;99.90;;;;;;5100736;28;20079;-73
2022/10/24 08:13:48;;;;;;;9.85;1.30;;;16.90;99.90;;;;;;5118235;28;20332;-73
2022/10/24 08:16:17;;;;;;;6.95;1.27;;;16.90;99.90;;;;;;5118302;28;20439;-73
2022/10/24 08:18:42;;;;;;;7.35;1.38;;;17.00;99.90;;;;;;5118556;28;20048;-73
2022/10/24 08:21:10;;;;;;;10.10;1.50;;;17.10;99.90;;;;;;5118446;28;20042;-71
2022/10/24 08:23:38;;;;;;;5.07;1.30;;;17.10;99.90;;;;;;5118063;28;20422;-71
2022/10/24 08:26:10;;;;;;;5.55;1.40;;;17.10;99.90;;;;;;5118108;28;20051;-71
2022/10/24 08:28:36;;;;;;;6.10;1.15;;;17.10;99.90;;;;;;5118464;28;20355;-70
2022/10/24 08:31:07;;;;;;;7.47;1.13;;;17.10;99.90;;;;;;5118288;28;20035;-71
2022/10/24 08:33:34;;;;;;;8.45;1.20;;;17.10;99.90;;;;;;5099938;28;20100;-71
2022/10/24 08:36:05;;;;;;;5.93;1.13;;;17.00;99.90;;;;;;5118038;28;20035;-71
2022/10/24 08:38:31;;;;;;;8.40;1.13;;;17.00;99.90;;;;;;5117846;28;20039;-70
2022/10/24 08:40:57;;;;;;;6.55;1.17;;;17.00;99.90;;;;;;5117661;28;20051;-70
2022/10/24 08:43:23;;;;;;;6.72;1.23;;;17.20;99.90;;;;;;5099987;28;20066;-70
2022/10/24 08:46:18;;;;;;;6.80;1.20;;;17.10;99.90;;;;;;5117572;28;20093;-70
2022/10/24 08:48:52;;;;;;;7.40;1.38;;;17.10;99.90;;;;;;5117646;28;20413;-70
2022/10/24 08:51:35;;;;;;;9.25;1.30;;;17.00;99.90;;;;;;5117948;28;20097;-71
2022/10/24 08:54:03;;;;;;;8.30;1.00;;;17.00;99.90;;;;;;5117880;28;20100;-70
2022/10/24 08:56:32;;;;;;;7.45;1.10;;;16.80;99.90;;;;;;5117763;28;20039;-71
2022/10/24 08:59:00;;;;;;;7.25;1.08;;;16.80;99.90;;;;;;5117745;28;20482;-70
2022/10/24 09:01:37;;;;;;;8.63;1.25;;;16.80;99.90;;;;;;5117619;28;20045;-70
2022/10/24 09:04:07;;;;;;;7.97;1.60;;;16.70;99.90;;;;;;5117388;28;20455;-70
2022/10/24 09:06:33;;;;;;;8.25;1.40;;;16.60;99.90;;;;;;5117347;28;20091;-71
2022/10/24 09:09:00;;;;;;;9.73;1.27;;;16.60;99.90;;;;;;5082371;28;20039;-70
2022/10/24 09:12:03;;;;;;;12.23;1.98;;;16.60;99.90;;;;;;5117559;28;20328;-70
2022/10/24 09:14:32;;;;;;;10.00;1.33;;;16.50;99.90;;;;;;5116816;28;20463;-70
2022/10/24 09:17:16;;;;;;;9.65;1.23;;;16.60;99.90;;;;;;5117425;28;20123;-71
2022/10/24 09:19:49;;;;;;;6.10;1.15;;;16.70;99.90;;;;;;5117367;28;20047;-71
2022/10/24 09:22:16;;;;;;;8.38;1.17;;;16.70;99.90;;;;;;5117435;28;20027;-70
2022/10/24 09:25:04;;;;;;;9.50;1.30;;;16.60;99.90;;;;;;5117371;28;20302;-71
2022/10/24 09:27:34;;;;;;;7.55;1.40;;;16.70;99.90;;;;;;5117185;28;20048;-70
2022/10/24 09:30:01;;;;;;;7.88;1.33;;;16.50;99.90;;;;;;5117059;28;20356;-70
2022/10/24 09:32:30;;;;;;;7.53;1.25;;;16.50;99.90;;;;;;5117239;28;20440;-70
2022/10/24 09:35:03;;;;;;;8.90;1.45;;;16.40;99.90;;;;;;5116965;28;20437;-70
2022/10/24 09:37:29;;;;;;;11.18;1.10;;;16.50;99.90;;;;;;5117590;28;20392;-68
2022/10/24 09:40:16;;;;;;;9.57;1.10;;;16.50;99.90;;;;;;5117096;28;20071;-70
2022/10/24 09:43:03;;;;;;;9.90;1.38;;;16.40;99.90;;;;;;5116849;28;20336;-70
2022/10/24 09:45:41;;;;;;;7.75;1.13;;;16.50;99.90;;;;;;5118196;28;20043;-71
2022/10/24 09:48:27;;;;;;;9.38;1.05;;;16.60;99.90;;;;;;5121243;28;20043;-70
2022/10/24 09:50:54;;;;;;;7.53;1.02;;;16.70;99.90;;;;;;5121491;28;20040;-70
2022/10/24 09:53:35;;;;;;;10.27;1.00;;;16.80;99.90;;;;;;5103368;28;20039;-69
2022/10/24 09:56:12;;;;;;;11.07;1.70;;;17.00;99.90;;;;;;5121306;28;20306;-69
2022/10/24 09:58:39;;;;;;;7.13;0.88;;;17.00;99.90;;;;;;5121341;28;20051;-70
2022/10/24 10:01:04;;;;;;;10.02;1.08;;;17.10;99.90;;;;;;5121111;28;20036;-70
2022/10/24 10:03:32;;;;;;;6.45;1.42;;;17.10;99.90;;;;;;5121145;28;20093;-69
2022/10/24 10:06:03;;;;;;;8.48;1.17;;;17.20;99.90;;;;;;5102729;28;20119;-69
2022/10/24 10:08:36;;;;;;;7.90;1.35;;;17.20;99.90;;;;;;5120842;28;20039;-70
2022/10/24 10:11:06;;;;;;;6.20;1.05;;;17.20;99.90;;;;;;5121059;28;20412;-69
2022/10/24 10:13:54;;;;;;;5.93;1.08;;;17.30;99.90;;;;;;5120880;28;20043;-70
2022/10/24 10:16:23;;;;;;;6.43;1.00;;;17.20;99.90;;;;;;5120478;28;20077;-69
2022/10/24 10:18:50;;;;;;;11.57;1.20;;;17.20;99.90;;;;;;5120873;28;20045;-70
2022/10/24 10:21:22;;;;;;;6.15;1.17;;;17.40;99.90;;;;;;5120754;28;20043;-70
2022/10/24 10:23:48;;;;;;;6.32;1.05;;;17.20;99.90;;;;;;5120496;28;20050;-70
2022/10/24 10:26:16;;;;;;;12.88;1.10;;;17.30;99.90;;;;;;5120523;28;20031;-71
2022/10/24 10:28:52;;;;;;;11.30;1.00;;;17.20;99.90;;;;;;5120583;28;20055;-70
2022/10/24 10:31:33;;;;;;;7.63;0.90;;;17.30;99.90;;;;;;5120773;28;20044;-69
2022/10/24 10:34:07;;;;;;;6.68;0.90;;;17.30;99.90;;;;;;5102935;28;20457;-70
2022/10/24 10:36:54;;;;;;;8.38;1.30;;;17.30;99.90;;;;;;5120699;28;20043;-73
2022/10/24 10:39:52;;;;;;;6.28;1.00;;;17.40;99.90;;;;;;5120481;28;20050;-80
2022/10/24 10:42:34;;;;;;;8.02;1.05;;;17.50;99.90;;;;;;5085145;28;20039;-81
2022/10/24 10:45:39;;;;;;;13.15;1.65;;;17.10;99.90;;;;;;5101636;28;20439;-69
2022/10/24 10:48:19;;;;;;;9.32;1.25;;;17.20;99.90;;;;;;5120296;28;20035;-70
2022/10/24 10:50:45;;;;;;;11.60;1.20;;;17.60;99.90;;;;;;5120276;28;20067;-69
2022/10/24 10:53:34;;;;;;;7.03;1.00;;;17.60;99.90;;;;;;5120257;28;20132;-70
2022/10/24 10:56:22;;;;;;;5.25;0.90;;;17.50;99.90;;;;;;5120147;28;20039;-69
2022/10/24 10:58:54;;;;;;;8.25;1.27;;;17.50;99.90;;;;;;5119205;28;20062;-69
2022/10/24 11:01:38;;;;;;;12.50;1.25;;;17.40;99.90;;;;;;5119694;28;20478;-70
2022/10/24 11:04:22;;;;;;;8.32;1.60;;;17.40;99.90;;;;;;5119976;28;20036;-70
2022/10/24 11:07:31;;;;;;;6.28;1.35;;;17.30;99.90;;;;;;5119927;28;20031;-72
2022/10/24 11:10:00;;;;;;;8.65;1.52;;;17.20;99.90;;;;;;5070780;28;20060;-71
2022/10/24 11:12:34;;;;;;;6.53;1.00;;;17.30;99.90;;;;;;5102057;28;20083;-74
2022/10/24 11:15:04;;;;;;;11.73;1.30;;;17.40;99.90;;;;;;5119353;28;20337;-71
2022/10/24 11:17:51;;;;;;;9.30;1.42;;;17.70;99.90;;;;;;5120020;28;20042;-70
2022/10/24 11:20:19;;;;;;;6.95;0.98;;;17.90;99.90;;;;;;5119563;28;20343;-70
2022/10/24 11:22:57;;;;;;;5.60;0.93;;;18.00;99.90;;;;;;5119355;28;20044;-70
2022/10/24 11:25:38;;;;;;;5.68;0.90;;;18.00;99.70;;;;;;5119585;28;20070;-71
2022/10/24 11:28:19;;;;;;;6.10;1.20;;;18.30;99.70;;;;;;5119230;28;20048;-70
2022/10/24 11:30:58;;;;;;;8.40;1.15;;;18.50;99.30;;;;;;5101258;28;20468;-70
2022/10/24 11:33:34;;;;;;;7.82;1.45;;;18.40;99.10;;;;;;5119481;28;20050;-70
2022/10/24 11:36:11;;;;;;;6.85;1.08;;;18.10;99.20;;;;;;5119434;28;20302;-70
2022/10/24 11:38:47;;;;;;;10.57;1.30;;;18.00;99.60;;;;;;5119018;28;20429;-70
2022/10/24 11:41:25;;;;;;;10.32;1.08;;;17.90;99.30;;;;;;5119266;28;20333;-71
2022/10/24 11:43:53;;;;;;;7.25;1.20;;;17.60;99.40;;;;;;5118987;28;20114;-71
2022/10/24 11:46:33;;;;;;;7.13;1.10;;;17.60;99.90;;;;;;5118884;28;20046;-70
2022/10/24 11:49:08;;;;;;;9.70;1.23;;;18.10;99.90;;;;;;5119185;28;20059;-70
2022/10/24 11:52:00;;;;;;;7.70;1.00;;;18.20;99.00;;;;;;5119131;28;20046;-70
2022/10/24 11:54:51;;;;;;;7.68;1.10;;;18.10;99.30;;;;;;5079823;28;20052;-70
2022/10/24 11:57:26;;;;;;;7.28;1.15;;;18.30;99.30;;;;;;5118965;28;20051;-70
2022/10/24 11:59:53;;;;;;;8.80;1.48;;;18.20;99.60;;;;;;5100913;28;20067;-70
2022/10/24 12:02:56;;;;;;;11.73;1.00;;;18.20;99.30;;;;;;5118887;28;20096;-70
2022/10/24 12:05:26;;;;;;;6.97;0.90;;;18.10;99.50;;;;;;5118503;28;20486;-70
2022/10/24 12:08:32;;;;;;;6.20;1.02;;;17.90;99.40;;;;;;5100425;28;20039;-70
2022/10/24 12:11:17;;;;;;;5.60;1.17;;;17.60;99.60;;;;;;5062234;28;20127;-71
2022/10/24 12:14:07;;;;;;;9.05;0.90;;;17.50;99.70;;;;;;5118302;28;20032;-70
2022/10/24 12:17:12;;;;;;;9.15;1.10;;;17.40;99.60;;;;;;5118301;28;20042;-70
2022/10/24 12:19:43;;;;;;;7.00;1.20;;;17.40;99.80;;;;;;5100423;28;20421;-70
2022/10/24 12:22:24;;;;;;;7.60;1.10;;;17.40;99.90;;;;;;5118456;28;20043;-70
2022/10/24 12:25:02;;;;;;;5.78;0.70;;;17.60;99.50;;;;;;5100548;28;20054;-70
2022/10/24 12:27:34;;;;;;;9.10;1.08;;;17.80;99.50;;;;;;5117976;28;20055;-70
2022/10/24 12:30:20;;;;;;;6.45;1.30;;;17.80;99.00;;;;;;5118322;28;20083;-70
2022/10/24 12:33:05;;;;;;;7.82;1.02;;;17.70;99.40;;;;;;5118235;28;20062;-70
2022/10/24 12:35:46;;;;;;;9.95;1.70;;;17.80;99.40;;;;;;5118227;28;20046;-68
2022/10/24 12:38:16;;;;;;;5.38;1.20;;;17.90;99.50;;;;;;5118199;28;20344;-68
2022/10/24 12:40:45;;;;;;;8.45;1.25;;;18.40;99.50;;;;;;5099736;28;20040;-70
2022/10/24 12:43:31;;;;;;;12.15;1.40;;;18.40;98.90;;;;;;5117778;28;20443;-69
2022/10/24 12:46:03;;;;;;;11.60;1.52;;;17.90;98.90;;;;;;5117437;28;20075;-70
2022/10/24 12:48:35;;;;;;;5.43;0.95;;;17.60;99.10;;;;;;5117663;28;20035;-70
2022/10/24 12:51:01;;;;;;;7.35;0.95;;;17.50;99.20;;;;;;5117909;28;20054;-70
2022/10/24 12:53:32;;;;;;;9.48;1.25;;;17.70;99.30;;;;;;5117870;28;20047;-70
2022/10/24 12:55:58;;;;;;;6.53;1.02;;;17.80;99.40;;;;;;5117817;28;20333;-71
2022/10/24 12:58:37;;;;;;;9.75;1.20;;;17.70;99.30;;;;;;5099530;28;20043;-71
2022/10/24 13:01:04;;;;;;;8.98;1.00;;;17.60;99.20;;;;;;5117698;28;20036;-71
2022/10/24 13:03:52;;;;;;;7.88;1.02;;;17.80;99.50;;;;;;5117690;28;20088;-71
2022/10/24 13:06:32;;;;;;;9.68;1.45;;;18.60;99.20;;;;;;5099351;28;20071;-71